sensor_id;sensor_type;location;lat;lon;timestamp;pressure;altitude;pressure_sealevel;temperature;humidity
68199;BME280;55021;51.554;17.044;2023-07-20T00:09:15;99953.19;;;18.56;75.65
68199;BME280;55021;51.554;17.044;2023-07-20T00:24:18;99822.44;;;17.13;81.22
68199;BME280;55021;51.554;17.044;2023-07-20T00:39:50;99900.88;;;16.24;87.73
68199;BME280;55021;51.554;17.044;2023-07-20T00:54:56;99907.25;;;16.88;85.06
68199;BME280;55021;51.554;17.044;2023-07-20T01:10:05;99821.00;;;16.66;84.53
68199;BME280;55021;51.554;17.044;2023-07-20T01:25:20;99956.28;;;17.54;83.71
68199;BME280;55021;51.554;17.044;2023-07-20T01:40:24;99951.16;;;17.19;85.09
68199;BME280;55021;51.554;17.044;2023-07-20T01:55:27;99806.94;;;16.56;84.36
68199;BME280;55021;51.554;17.044;2023-07-20T02:10:30;99828.47;;;15.08;91.39
68199;BME280;55021;51.554;17.044;2023-07-20T02:41:07;99992.78;;;16.77;85.81
68199;BME280;55021;51.554;17.044;2023-07-20T02:56:09;99982.91;;;16.37;88.51
68199;BME280;55021;51.554;17.044;2023-07-20T03:11:11;99887.41;;;16.93;82.24
68199;BME280;55021;51.554;17.044;2023-07-20T03:26:14;99998.47;;;16.89;83.29
68199;BME280;55021;51.554;17.044;2023-07-20T03:41:36;99896.72;;;16.92;82.00
68199;BME280;55021;51.554;17.044;2023-07-20T03:56:41;99926.91;;;16.72;84.58
68199;BME280;55021;51.554;17.044;2023-07-20T04:12:26;99864.28;;;16.11;85.64
68199;BME280;55021;51.554;17.044;2023-07-20T04:27:28;100004.53;;;17.61;83.64
68199;BME280;55021;51.554;17.044;2023-07-20T04:42:32;100019.97;;;17.43;84.75
68199;BME280;55021;51.554;17.044;2023-07-20T04:57:35;99927.41;;;16.10;86.86
68199;BME280;55021;51.554;17.044;2023-07-20T05:12:38;100063.56;;;17.64;81.56
68199;BME280;55021;51.554;17.044;2023-07-20T05:27:40;100005.31;;;17.17;83.87
68199;BME280;55021;51.554;17.044;2023-07-20T05:42:46;100074.84;;;18.56;80.64
68199;BME280;55021;51.554;17.044;2023-07-20T05:57:48;100070.97;;;18.64;77.16
68199;BME280;55021;51.554;17.044;2023-07-20T06:12:51;100085.47;;;18.71;78.82
68199;BME280;55021;51.554;17.044;2023-07-20T06:28:32;100016.34;;;18.98;73.68
68199;BME280;55021;51.554;17.044;2023-07-20T06:43:35;100104.47;;;19.94;71.23
68199;BME280;55021;51.554;17.044;2023-07-20T06:58:38;100109.63;;;19.73;72.68
68199;BME280;55021;51.554;17.044;2023-07-20T07:13:42;100059.41;;;21.01;67.25
68199;BME280;55021;51.554;17.044;2023-07-20T07:28:47;100017.44;;;21.11;65.35
68199;BME280;55021;51.554;17.044;2023-07-20T07:43:58;99959.63;;;19.70;63.70
68199;BME280;55021;51.554;17.044;2023-07-20T07:59:03;99937.44;;;20.36;60.92
68199;BME280;55021;51.554;17.044;2023-07-20T08:14:05;100084.88;;;22.34;60.14
68199;BME280;55021;51.554;17.044;2023-07-20T08:29:09;100071.00;;;20.80;60.72
68199;BME280;55021;51.554;17.044;2023-07-20T08:44:12;100098.69;;;22.06;57.45
68199;BME280;55021;51.554;17.044;2023-07-20T08:59:15;100102.44;;;22.56;54.61
68199;BME280;55021;51.554;17.044;2023-07-20T09:14:23;100097.00;;;21.65;55.55
68199;BME280;55021;51.554;17.044;2023-07-20T09:29:26;99973.84;;;22.04;52.29
68199;BME280;55021;51.554;17.044;2023-07-20T09:44:29;100091.50;;;18.61;82.88
68199;BME280;55021;51.554;17.044;2023-07-20T09:59:32;100012.50;;;19.72;78.09
68199;BME280;55021;51.554;17.044;2023-07-20T10:14:38;100001.34;;;19.67;75.80
68199;BME280;55021;51.554;17.044;2023-07-20T10:29:43;100072.22;;;21.19;65.11
68199;BME280;55021;51.554;17.044;2023-07-20T10:44:46;99931.91;;;20.82;63.27
68199;BME280;55021;51.554;17.044;2023-07-20T10:59:49;100020.50;;;21.89;51.58
68199;BME280;55021;51.554;17.044;2023-07-20T11:14:56;100093.75;;;20.75;60.35
68199;BME280;55021;51.554;17.044;2023-07-20T11:29:58;99946.16;;;22.82;55.26
68199;BME280;55021;51.554;17.044;2023-07-20T11:45:02;100082.56;;;22.43;58.04
68199;BME280;55021;51.554;17.044;2023-07-20T12:00:05;100074.97;;;22.83;51.91
68199;BME280;55021;51.554;17.044;2023-07-20T12:15:15;100050.13;;;23.60;47.08
68199;BME280;55021;51.554;17.044;2023-07-20T12:30:18;100063.06;;;23.54;45.79
68199;BME280;55021;51.554;17.044;2023-07-20T12:45:21;100056.75;;;23.37;45.54
68199;BME280;55021;51.554;17.044;2023-07-20T13:00:23;100060.44;;;24.08;44.72
68199;BME280;55021;51.554;17.044;2023-07-20T13:15:29;100064.72;;;24.20;44.01
68199;BME280;55021;51.554;17.044;2023-07-20T13:30:32;100054.97;;;23.69;42.81
68199;BME280;55021;51.554;17.044;2023-07-20T13:45:36;100052.22;;;23.91;41.78
68199;BME280;55021;51.554;17.044;2023-07-20T16:50:28;100095.00;;;22.74;42.19
68199;BME280;55021;51.554;17.044;2023-07-20T17:05:31;100102.91;;;22.25;43.12
68199;BME280;55021;51.554;17.044;2023-07-20T17:20:33;100111.63;;;21.66;43.52
68199;BME280;55021;51.554;17.044;2023-07-20T17:35:36;100126.56;;;21.93;42.53
68199;BME280;55021;51.554;17.044;2023-07-20T17:50:39;100123.59;;;21.83;43.89
68199;BME280;55021;51.554;17.044;2023-07-20T18:05:41;100124.22;;;21.62;45.79
68199;BME280;55021;51.554;17.044;2023-07-20T18:20:44;100119.59;;;22.02;45.69
68199;BME280;55021;51.554;17.044;2023-07-20T18:35:46;100109.88;;;21.02;49.87
68199;BME280;55021;51.554;17.044;2023-07-20T18:50:49;100148.59;;;21.41;48.88
68199;BME280;55021;51.554;17.044;2023-07-20T19:05:51;100167.97;;;22.05;46.61
68199;BME280;55021;51.554;17.044;2023-07-20T19:20:54;100171.00;;;20.80;51.25
68199;BME280;55021;51.554;17.044;2023-07-20T19:35:56;100168.75;;;20.18;52.15
68199;BME280;55021;51.554;17.044;2023-07-20T19:50:59;100192.47;;;20.19;53.00
68199;BME280;55021;51.554;17.044;2023-07-20T20:06:05;100218.31;;;20.36;53.49
68199;BME280;55021;51.554;17.044;2023-07-20T20:21:07;100217.41;;;19.63;54.94
68199;BME280;55021;51.554;17.044;2023-07-20T20:36:10;100233.59;;;18.66;60.21
68199;BME280;55021;51.554;17.044;2023-07-20T20:51:12;100236.91;;;17.07;66.26
68199;BME280;55021;51.554;17.044;2023-07-20T21:06:16;100248.91;;;17.84;61.91
68199;BME280;55021;51.554;17.044;2023-07-20T21:21:19;100229.09;;;18.33;61.14
68199;BME280;55021;51.554;17.044;2023-07-20T21:36:21;100245.16;;;18.81;59.06
68199;BME280;55021;51.554;17.044;2023-07-20T21:51:24;100266.22;;;17.85;64.18
68199;BME280;55021;51.554;17.044;2023-07-20T22:06:27;100255.66;;;18.52;59.36
68199;BME280;55021;51.554;17.044;2023-07-20T22:21:29;100283.53;;;17.66;62.83
68199;BME280;55021;51.554;17.044;2023-07-20T22:36:31;100243.47;;;17.52;63.23
68199;BME280;55021;51.554;17.044;2023-07-20T22:51:33;100247.81;;;17.85;62.96
68199;BME280;55021;51.554;17.044;2023-07-20T23:06:36;100258.00;;;17.13;67.48
68199;BME280;55021;51.554;17.044;2023-07-20T23:21:38;100278.22;;;17.05;66.09
68199;BME280;55021;51.554;17.044;2023-07-20T23:36:41;100243.25;;;16.34;68.01
68199;BME280;55021;51.554;17.044;2023-07-20T23:51:43;100257.19;;;15.42;71.27
